sensor_id;sensor_type;location;lat;lon;timestamp;P1;durP1;ratioP1;P2;durP2;ratioP2
485;SDS011;229;48.734;9.340;2023-08-06T00:01:06;7.53;;;5.90;;
485;SDS011;229;48.734;9.340;2023-08-06T00:03:33;9.40;;;5.77;;
485;SDS011;229;48.734;9.340;2023-08-06T00:06:01;9.00;;;6.23;;
485;SDS011;229;48.734;9.340;2023-08-06T00:08:28;11.60;;;7.25;;
485;SDS011;229;48.734;9.340;2023-08-06T00:10:55;10.47;;;7.27;;
485;SDS011;229;48.734;9.340;2023-08-06T00:13:22;11.90;;;7.60;;
485;SDS011;229;48.734;9.340;2023-08-06T00:15:51;9.93;;;6.80;;
485;SDS011;229;48.734;9.340;2023-08-06T00:18:18;11.57;;;7.00;;
485;SDS011;229;48.734;9.340;2023-08-06T00:20:45;9.70;;;7.20;;
485;SDS011;229;48.734;9.340;2023-08-06T00:23:12;9.45;;;6.57;;
485;SDS011;229;48.734;9.340;2023-08-06T00:25:40;14.13;;;6.77;;
485;SDS011;229;48.734;9.340;2023-08-06T00:28:07;10.67;;;7.57;;
485;SDS011;229;48.734;9.340;2023-08-06T00:30:34;9.82;;;6.78;;
485;SDS011;229;48.734;9.340;2023-08-06T00:33:02;11.40;;;7.45;;
485;SDS011;229;48.734;9.340;2023-08-06T00:35:30;10.88;;;6.78;;
485;SDS011;229;48.734;9.340;2023-08-06T00:37:57;9.55;;;7.05;;
485;SDS011;229;48.734;9.340;2023-08-06T00:40:24;10.02;;;6.50;;
485;SDS011;229;48.734;9.340;2023-08-06T00:42:53;9.90;;;7.95;;
485;SDS011;229;48.734;9.340;2023-08-06T00:45:20;9.70;;;7.25;;
485;SDS011;229;48.734;9.340;2023-08-06T00:47:48;10.00;;;6.60;;
485;SDS011;229;48.734;9.340;2023-08-06T00:50:16;9.07;;;7.30;;
485;SDS011;229;48.734;9.340;2023-08-06T00:52:46;11.50;;;7.10;;
485;SDS011;229;48.734;9.340;2023-08-06T00:55:13;11.88;;;6.47;;
485;SDS011;229;48.734;9.340;2023-08-06T00:57:40;10.43;;;7.60;;
485;SDS011;229;48.734;9.340;2023-08-06T01:00:08;11.73;;;7.05;;
485;SDS011;229;48.734;9.340;2023-08-06T01:02:35;9.85;;;7.45;;
485;SDS011;229;48.734;9.340;2023-08-06T01:05:03;14.00;;;7.80;;
485;SDS011;229;48.734;9.340;2023-08-06T01:07:37;15.15;;;8.10;;
485;SDS011;229;48.734;9.340;2023-08-06T01:10:10;9.93;;;7.47;;
485;SDS011;229;48.734;9.340;2023-08-06T01:12:45;13.13;;;7.80;;
485;SDS011;229;48.734;9.340;2023-08-06T01:15:15;12.10;;;8.30;;
485;SDS011;229;48.734;9.340;2023-08-06T01:17:42;12.68;;;8.50;;
485;SDS011;229;48.734;9.340;2023-08-06T01:20:09;10.93;;;8.25;;
485;SDS011;229;48.734;9.340;2023-08-06T01:22:38;12.55;;;8.43;;
485;SDS011;229;48.734;9.340;2023-08-06T01:25:05;14.70;;;9.20;;
485;SDS011;229;48.734;9.340;2023-08-06T01:27:33;15.13;;;8.05;;
485;SDS011;229;48.734;9.340;2023-08-06T01:30:06;10.75;;;7.95;;
485;SDS011;229;48.734;9.340;2023-08-06T01:32:36;10.60;;;7.70;;
485;SDS011;229;48.734;9.340;2023-08-06T01:35:05;14.60;;;8.50;;
485;SDS011;229;48.734;9.340;2023-08-06T01:37:33;11.40;;;7.78;;
485;SDS011;229;48.734;9.340;2023-08-06T01:40:02;11.90;;;8.23;;
485;SDS011;229;48.734;9.340;2023-08-06T01:42:32;15.27;;;8.43;;
485;SDS011;229;48.734;9.340;2023-08-06T01:44:59;10.23;;;7.90;;
485;SDS011;229;48.734;9.340;2023-08-06T01:47:26;10.85;;;7.50;;
485;SDS011;229;48.734;9.340;2023-08-06T01:49:53;9.38;;;7.43;;
485;SDS011;229;48.734;9.340;2023-08-06T01:52:21;15.57;;;8.63;;
485;SDS011;229;48.734;9.340;2023-08-06T01:54:48;15.52;;;8.15;;
485;SDS011;229;48.734;9.340;2023-08-06T01:57:16;14.27;;;8.02;;
485;SDS011;229;48.734;9.340;2023-08-06T01:59:44;11.35;;;7.18;;
485;SDS011;229;48.734;9.340;2023-08-06T02:02:11;14.15;;;7.18;;
485;SDS011;229;48.734;9.340;2023-08-06T02:04:38;14.50;;;8.25;;
485;SDS011;229;48.734;9.340;2023-08-06T02:07:05;13.32;;;7.95;;
485;SDS011;229;48.734;9.340;2023-08-06T02:09:32;10.45;;;6.97;;
485;SDS011;229;48.734;9.340;2023-08-06T02:12:00;9.73;;;7.15;;
485;SDS011;229;48.734;9.340;2023-08-06T02:14:29;9.85;;;6.97;;
485;SDS011;229;48.734;9.340;2023-08-06T02:16:56;11.85;;;6.93;;
485;SDS011;229;48.734;9.340;2023-08-06T02:19:23;11.05;;;7.30;;
485;SDS011;229;48.734;9.340;2023-08-06T02:21:50;9.13;;;6.45;;
485;SDS011;229;48.734;9.340;2023-08-06T02:24:17;10.30;;;6.97;;
485;SDS011;229;48.734;9.340;2023-08-06T02:26:44;11.35;;;6.35;;
485;SDS011;229;48.734;9.340;2023-08-06T02:29:13;14.05;;;5.75;;
485;SDS011;229;48.734;9.340;2023-08-06T02:31:42;11.68;;;7.03;;
485;SDS011;229;48.734;9.340;2023-08-06T02:34:09;11.20;;;6.22;;
485;SDS011;229;48.734;9.340;2023-08-06T02:36:36;8.73;;;5.70;;
485;SDS011;229;48.734;9.340;2023-08-06T02:39:03;10.25;;;6.00;;
485;SDS011;229;48.734;9.340;2023-08-06T02:41:30;8.45;;;5.40;;
485;SDS011;229;48.734;9.340;2023-08-06T02:43:57;12.25;;;5.80;;
485;SDS011;229;48.734;9.340;2023-08-06T02:46:25;8.57;;;4.90;;
485;SDS011;229;48.734;9.340;2023-08-06T02:48:53;12.93;;;5.75;;
485;SDS011;229;48.734;9.340;2023-08-06T02:51:20;10.93;;;5.28;;
485;SDS011;229;48.734;9.340;2023-08-06T02:53:47;9.27;;;5.05;;
485;SDS011;229;48.734;9.340;2023-08-06T02:56:15;8.20;;;4.97;;
485;SDS011;229;48.734;9.340;2023-08-06T02:58:42;10.00;;;5.65;;
485;SDS011;229;48.734;9.340;2023-08-06T03:01:09;6.43;;;4.82;;
485;SDS011;229;48.734;9.340;2023-08-06T03:03:36;7.95;;;4.50;;
485;SDS011;229;48.734;9.340;2023-08-06T03:06:05;7.18;;;5.35;;
485;SDS011;229;48.734;9.340;2023-08-06T03:08:32;9.43;;;5.10;;
485;SDS011;229;48.734;9.340;2023-08-06T03:10:59;9.70;;;5.60;;
485;SDS011;229;48.734;9.340;2023-08-06T03:13:26;8.10;;;4.60;;
485;SDS011;229;48.734;9.340;2023-08-06T03:15:54;10.40;;;4.55;;
485;SDS011;229;48.734;9.340;2023-08-06T03:18:21;7.93;;;4.65;;
485;SDS011;229;48.734;9.340;2023-08-06T03:20:49;8.68;;;4.63;;
485;SDS011;229;48.734;9.340;2023-08-06T03:23:17;8.85;;;5.03;;
485;SDS011;229;48.734;9.340;2023-08-06T03:25:44;6.53;;;4.22;;
485;SDS011;229;48.734;9.340;2023-08-06T03:28:12;7.55;;;4.65;;
485;SDS011;229;48.734;9.340;2023-08-06T03:30:39;5.60;;;4.00;;
485;SDS011;229;48.734;9.340;2023-08-06T03:33:06;7.53;;;4.00;;
485;SDS011;229;48.734;9.340;2023-08-06T03:35:33;8.48;;;4.40;;
485;SDS011;229;48.734;9.340;2023-08-06T03:38:01;5.80;;;3.65;;
485;SDS011;229;48.734;9.340;2023-08-06T03:40:29;4.65;;;3.75;;
485;SDS011;229;48.734;9.340;2023-08-06T03:42:56;6.00;;;3.88;;
485;SDS011;229;48.734;9.340;2023-08-06T03:45:23;6.60;;;4.07;;
485;SDS011;229;48.734;9.340;2023-08-06T03:47:51;6.72;;;4.15;;
485;SDS011;229;48.734;9.340;2023-08-06T03:50:18;6.00;;;3.42;;
485;SDS011;229;48.734;9.340;2023-08-06T03:52:45;6.55;;;3.72;;
485;SDS011;229;48.734;9.340;2023-08-06T03:55:12;5.05;;;2.90;;
485;SDS011;229;48.734;9.340;2023-08-06T03:57:41;5.57;;;3.55;;
485;SDS011;229;48.734;9.340;2023-08-06T04:00:08;5.13;;;3.17;;
485;SDS011;229;48.734;9.340;2023-08-06T04:02:35;6.30;;;3.50;;
485;SDS011;229;48.734;9.340;2023-08-06T04:05:03;4.95;;;3.38;;
485;SDS011;229;48.734;9.340;2023-08-06T04:07:30;5.15;;;3.35;;
485;SDS011;229;48.734;9.340;2023-08-06T04:09:58;4.18;;;3.03;;
485;SDS011;229;48.734;9.340;2023-08-06T04:12:25;6.07;;;3.10;;
485;SDS011;229;48.734;9.340;2023-08-06T04:14:54;6.45;;;3.30;;
485;SDS011;229;48.734;9.340;2023-08-06T04:17:21;3.70;;;2.67;;
485;SDS011;229;48.734;9.340;2023-08-06T04:19:49;4.10;;;3.03;;
485;SDS011;229;48.734;9.340;2023-08-06T04:22:17;5.53;;;3.13;;
485;SDS011;229;48.734;9.340;2023-08-06T04:24:44;3.45;;;2.95;;
485;SDS011;229;48.734;9.340;2023-08-06T04:27:12;5.82;;;3.45;;
485;SDS011;229;48.734;9.340;2023-08-06T04:29:39;5.65;;;3.55;;
485;SDS011;229;48.734;9.340;2023-08-06T04:32:08;4.68;;;3.00;;
485;SDS011;229;48.734;9.340;2023-08-06T04:34:36;6.63;;;3.10;;
485;SDS011;229;48.734;9.340;2023-08-06T04:37:04;5.75;;;3.40;;
485;SDS011;229;48.734;9.340;2023-08-06T04:39:31;7.03;;;2.95;;
485;SDS011;229;48.734;9.340;2023-08-06T04:41:58;8.32;;;3.20;;
485;SDS011;229;48.734;9.340;2023-08-06T04:44:25;5.07;;;3.10;;
485;SDS011;229;48.734;9.340;2023-08-06T04:46:52;5.63;;;3.15;;
485;SDS011;229;48.734;9.340;2023-08-06T04:49:21;5.88;;;3.20;;
485;SDS011;229;48.734;9.340;2023-08-06T04:51:48;5.47;;;3.17;;
485;SDS011;229;48.734;9.340;2023-08-06T04:54:16;6.40;;;3.20;;
485;SDS011;229;48.734;9.340;2023-08-06T04:56:43;8.13;;;3.50;;
485;SDS011;229;48.734;9.340;2023-08-06T04:59:10;4.10;;;3.25;;
485;SDS011;229;48.734;9.340;2023-08-06T05:01:37;7.57;;;3.63;;
485;SDS011;229;48.734;9.340;2023-08-06T05:04:04;12.07;;;2.70;;
485;SDS011;229;48.734;9.340;2023-08-06T05:06:33;4.88;;;2.35;;
485;SDS011;229;48.734;9.340;2023-08-06T05:09:00;3.45;;;2.25;;
485;SDS011;229;48.734;9.340;2023-08-06T05:11:27;4.70;;;2.33;;
485;SDS011;229;48.734;9.340;2023-08-06T05:13:54;3.58;;;2.10;;
485;SDS011;229;48.734;9.340;2023-08-06T05:16:21;3.72;;;2.10;;
485;SDS011;229;48.734;9.340;2023-08-06T05:18:48;5.13;;;1.60;;
485;SDS011;229;48.734;9.340;2023-08-06T05:21:16;7.57;;;1.90;;
485;SDS011;229;48.734;9.340;2023-08-06T05:23:44;5.65;;;2.10;;
485;SDS011;229;48.734;9.340;2023-08-06T05:26:11;5.10;;;2.22;;
485;SDS011;229;48.734;9.340;2023-08-06T05:28:39;3.42;;;1.80;;
485;SDS011;229;48.734;9.340;2023-08-06T05:31:07;6.45;;;1.90;;
485;SDS011;229;48.734;9.340;2023-08-06T05:33:34;2.42;;;1.40;;
485;SDS011;229;48.734;9.340;2023-08-06T05:36:01;2.80;;;1.63;;
485;SDS011;229;48.734;9.340;2023-08-06T05:38:29;3.65;;;1.88;;
485;SDS011;229;48.734;9.340;2023-08-06T05:40:57;5.40;;;1.63;;
485;SDS011;229;48.734;9.340;2023-08-06T05:43:25;3.03;;;1.35;;
485;SDS011;229;48.734;9.340;2023-08-06T05:45:52;4.22;;;1.60;;
485;SDS011;229;48.734;9.340;2023-08-06T05:48:19;2.55;;;1.33;;
485;SDS011;229;48.734;9.340;2023-08-06T05:50:47;4.60;;;1.40;;
485;SDS011;229;48.734;9.340;2023-08-06T05:53:14;1.65;;;1.30;;
485;SDS011;229;48.734;9.340;2023-08-06T05:55:42;2.63;;;1.40;;
485;SDS011;229;48.734;9.340;2023-08-06T05:58:10;3.88;;;1.15;;
485;SDS011;229;48.734;9.340;2023-08-06T06:00:37;3.22;;;1.50;;
485;SDS011;229;48.734;9.340;2023-08-06T06:03:04;6.05;;;2.00;;
485;SDS011;229;48.734;9.340;2023-08-06T06:05:32;2.28;;;1.00;;
485;SDS011;229;48.734;9.340;2023-08-06T06:07:59;3.65;;;1.17;;
485;SDS011;229;48.734;9.340;2023-08-06T06:10:26;4.22;;;1.50;;
485;SDS011;229;48.734;9.340;2023-08-06T06:12:53;6.50;;;1.55;;
485;SDS011;229;48.734;9.340;2023-08-06T06:15:21;2.50;;;1.35;;
485;SDS011;229;48.734;9.340;2023-08-06T06:17:49;4.43;;;1.35;;
485;SDS011;229;48.734;9.340;2023-08-06T06:20:16;2.00;;;1.30;;
485;SDS011;229;48.734;9.340;2023-08-06T06:22:43;3.50;;;1.80;;
485;SDS011;229;48.734;9.340;2023-08-06T06:25:10;2.90;;;1.10;;
485;SDS011;229;48.734;9.340;2023-08-06T06:27:37;4.28;;;1.30;;
485;SDS011;229;48.734;9.340;2023-08-06T06:30:05;2.17;;;1.48;;
485;SDS011;229;48.734;9.340;2023-08-06T06:32:34;1.80;;;0.85;;
485;SDS011;229;48.734;9.340;2023-08-06T06:35:01;3.05;;;1.10;;
485;SDS011;229;48.734;9.340;2023-08-06T06:37:28;5.45;;;1.10;;
485;SDS011;229;48.734;9.340;2023-08-06T06:39:55;3.58;;;1.30;;
485;SDS011;229;48.734;9.340;2023-08-06T06:42:22;3.78;;;1.17;;
485;SDS011;229;48.734;9.340;2023-08-06T06:44:50;5.30;;;1.45;;
485;SDS011;229;48.734;9.340;2023-08-06T06:47:17;3.53;;;1.73;;
485;SDS011;229;48.734;9.340;2023-08-06T06:49:45;4.30;;;1.35;;
485;SDS011;229;48.734;9.340;2023-08-06T06:52:14;2.45;;;1.10;;
485;SDS011;229;48.734;9.340;2023-08-06T06:54:41;2.42;;;1.10;;
485;SDS011;229;48.734;9.340;2023-08-06T06:57:08;5.75;;;1.27;;
485;SDS011;229;48.734;9.340;2023-08-06T06:59:35;2.75;;;1.00;;
485;SDS011;229;48.734;9.340;2023-08-06T07:02:03;2.35;;;1.20;;
485;SDS011;229;48.734;9.340;2023-08-06T07:04:30;2.17;;;1.10;;
485;SDS011;229;48.734;9.340;2023-08-06T07:06:59;2.55;;;0.85;;
485;SDS011;229;48.734;9.340;2023-08-06T07:09:26;1.40;;;0.90;;
485;SDS011;229;48.734;9.340;2023-08-06T07:11:53;5.85;;;1.65;;
485;SDS011;229;48.734;9.340;2023-08-06T07:14:20;1.83;;;0.98;;
485;SDS011;229;48.734;9.340;2023-08-06T07:16:48;1.80;;;1.00;;
485;SDS011;229;48.734;9.340;2023-08-06T07:19:15;1.90;;;1.00;;
485;SDS011;229;48.734;9.340;2023-08-06T07:21:42;2.08;;;1.30;;
485;SDS011;229;48.734;9.340;2023-08-06T07:24:12;2.50;;;0.95;;
485;SDS011;229;48.734;9.340;2023-08-06T07:26:40;1.77;;;0.82;;
485;SDS011;229;48.734;9.340;2023-08-06T07:29:07;2.45;;;0.85;;
485;SDS011;229;48.734;9.340;2023-08-06T07:31:34;5.40;;;0.90;;
485;SDS011;229;48.734;9.340;2023-08-06T07:34:01;1.90;;;0.80;;
485;SDS011;229;48.734;9.340;2023-08-06T07:36:28;2.25;;;0.95;;
485;SDS011;229;48.734;9.340;2023-08-06T07:38:56;1.55;;;0.70;;
485;SDS011;229;48.734;9.340;2023-08-06T07:41:24;6.22;;;0.90;;
485;SDS011;229;48.734;9.340;2023-08-06T07:43:51;1.30;;;0.70;;
485;SDS011;229;48.734;9.340;2023-08-06T07:46:18;1.08;;;0.70;;
485;SDS011;229;48.734;9.340;2023-08-06T07:48:46;2.65;;;0.88;;
485;SDS011;229;48.734;9.340;2023-08-06T07:51:13;0.80;;;0.50;;
485;SDS011;229;48.734;9.340;2023-08-06T07:53:40;3.58;;;0.80;;
485;SDS011;229;48.734;9.340;2023-08-06T07:56:07;1.13;;;0.70;;
485;SDS011;229;48.734;9.340;2023-08-06T07:58:36;1.25;;;0.70;;
485;SDS011;229;48.734;9.340;2023-08-06T08:01:03;0.80;;;0.50;;
485;SDS011;229;48.734;9.340;2023-08-06T08:03:32;2.13;;;0.85;;
485;SDS011;229;48.734;9.340;2023-08-06T08:06:00;1.10;;;0.70;;
485;SDS011;229;48.734;9.340;2023-08-06T08:08:27;4.65;;;0.70;;
485;SDS011;229;48.734;9.340;2023-08-06T08:10:54;0.70;;;0.60;;
485;SDS011;229;48.734;9.340;2023-08-06T08:13:24;3.45;;;0.60;;
485;SDS011;229;48.734;9.340;2023-08-06T08:15:55;1.55;;;0.73;;
485;SDS011;229;48.734;9.340;2023-08-06T08:18:23;0.90;;;0.70;;
485;SDS011;229;48.734;9.340;2023-08-06T08:20:50;3.55;;;0.80;;
485;SDS011;229;48.734;9.340;2023-08-06T08:23:17;0.70;;;0.43;;
485;SDS011;229;48.734;9.340;2023-08-06T08:25:44;0.90;;;0.70;;
485;SDS011;229;48.734;9.340;2023-08-06T08:28:12;0.60;;;0.50;;
485;SDS011;229;48.734;9.340;2023-08-06T08:30:40;1.88;;;0.60;;
485;SDS011;229;48.734;9.340;2023-08-06T08:33:08;0.80;;;0.63;;
485;SDS011;229;48.734;9.340;2023-08-06T08:35:36;2.00;;;0.60;;
485;SDS011;229;48.734;9.340;2023-08-06T08:38:03;1.15;;;0.70;;
485;SDS011;229;48.734;9.340;2023-08-06T08:40:31;1.35;;;0.60;;
485;SDS011;229;48.734;9.340;2023-08-06T08:42:58;0.93;;;0.55;;
485;SDS011;229;48.734;9.340;2023-08-06T08:45:26;1.63;;;0.60;;
485;SDS011;229;48.734;9.340;2023-08-06T08:47:55;0.80;;;0.50;;
485;SDS011;229;48.734;9.340;2023-08-06T08:50:24;1.48;;;0.50;;
485;SDS011;229;48.734;9.340;2023-08-06T08:52:51;1.70;;;0.50;;
485;SDS011;229;48.734;9.340;2023-08-06T08:55:18;1.88;;;0.50;;
485;SDS011;229;48.734;9.340;2023-08-06T08:57:46;0.80;;;0.60;;
485;SDS011;229;48.734;9.340;2023-08-06T09:00:13;3.17;;;0.60;;
485;SDS011;229;48.734;9.340;2023-08-06T09:02:41;2.25;;;0.60;;
485;SDS011;229;48.734;9.340;2023-08-06T09:05:09;1.40;;;0.88;;
485;SDS011;229;48.734;9.340;2023-08-06T09:07:39;0.77;;;0.52;;
485;SDS011;229;48.734;9.340;2023-08-06T09:10:09;0.70;;;0.50;;
485;SDS011;229;48.734;9.340;2023-08-06T09:12:38;1.13;;;0.80;;
485;SDS011;229;48.734;9.340;2023-08-06T09:15:06;1.25;;;0.77;;
485;SDS011;229;48.734;9.340;2023-08-06T09:17:33;1.98;;;1.30;;
485;SDS011;229;48.734;9.340;2023-08-06T09:20:08;1.10;;;0.60;;
485;SDS011;229;48.734;9.340;2023-08-06T09:22:35;1.85;;;0.60;;
485;SDS011;229;48.734;9.340;2023-08-06T09:25:04;0.70;;;0.57;;
485;SDS011;229;48.734;9.340;2023-08-06T09:27:35;0.60;;;0.50;;
485;SDS011;229;48.734;9.340;2023-08-06T09:30:03;0.82;;;0.50;;
485;SDS011;229;48.734;9.340;2023-08-06T09:32:41;0.80;;;0.50;;
485;SDS011;229;48.734;9.340;2023-08-06T09:35:14;1.13;;;0.50;;
485;SDS011;229;48.734;9.340;2023-08-06T09:37:42;1.40;;;0.75;;
485;SDS011;229;48.734;9.340;2023-08-06T09:42:54;1.30;;;0.80;;
485;SDS011;229;48.734;9.340;2023-08-06T09:45:21;0.60;;;0.50;;
485;SDS011;229;48.734;9.340;2023-08-06T09:47:48;0.70;;;0.53;;
485;SDS011;229;48.734;9.340;2023-08-06T09:50:16;0.73;;;0.50;;
485;SDS011;229;48.734;9.340;2023-08-06T09:52:44;1.17;;;0.50;;
485;SDS011;229;48.734;9.340;2023-08-06T09:55:11;1.33;;;0.52;;
485;SDS011;229;48.734;9.340;2023-08-06T09:57:39;2.40;;;0.50;;
485;SDS011;229;48.734;9.340;2023-08-06T10:00:08;0.87;;;0.63;;
485;SDS011;229;48.734;9.340;2023-08-06T10:02:37;2.00;;;0.80;;
485;SDS011;229;48.734;9.340;2023-08-06T10:05:04;0.88;;;0.57;;
485;SDS011;229;48.734;9.340;2023-08-06T10:07:32;2.20;;;0.60;;
485;SDS011;229;48.734;9.340;2023-08-06T10:10:04;0.88;;;0.70;;
485;SDS011;229;48.734;9.340;2023-08-06T10:12:32;0.60;;;0.40;;
485;SDS011;229;48.734;9.340;2023-08-06T10:14:59;0.70;;;0.60;;
485;SDS011;229;48.734;9.340;2023-08-06T10:17:29;0.70;;;0.50;;
485;SDS011;229;48.734;9.340;2023-08-06T10:19:58;1.73;;;0.67;;
485;SDS011;229;48.734;9.340;2023-08-06T10:22:25;0.80;;;0.50;;
485;SDS011;229;48.734;9.340;2023-08-06T10:24:53;0.70;;;0.50;;
485;SDS011;229;48.734;9.340;2023-08-06T10:27:21;1.23;;;0.60;;
485;SDS011;229;48.734;9.340;2023-08-06T10:29:49;1.57;;;0.50;;
485;SDS011;229;48.734;9.340;2023-08-06T10:32:16;2.43;;;0.57;;
485;SDS011;229;48.734;9.340;2023-08-06T10:34:58;1.00;;;0.50;;
485;SDS011;229;48.734;9.340;2023-08-06T10:37:36;1.57;;;0.50;;
485;SDS011;229;48.734;9.340;2023-08-06T10:40:03;0.80;;;0.60;;
485;SDS011;229;48.734;9.340;2023-08-06T10:42:33;2.30;;;0.67;;
485;SDS011;229;48.734;9.340;2023-08-06T10:45:16;1.17;;;0.60;;
485;SDS011;229;48.734;9.340;2023-08-06T10:47:43;0.60;;;0.50;;
485;SDS011;229;48.734;9.340;2023-08-06T10:50:13;2.00;;;0.60;;
485;SDS011;229;48.734;9.340;2023-08-06T10:52:41;1.30;;;0.60;;
485;SDS011;229;48.734;9.340;2023-08-06T10:55:08;1.43;;;0.60;;
485;SDS011;229;48.734;9.340;2023-08-06T10:57:36;1.20;;;0.63;;
485;SDS011;229;48.734;9.340;2023-08-06T11:00:04;1.67;;;0.70;;
485;SDS011;229;48.734;9.340;2023-08-06T11:02:33;1.30;;;0.70;;
485;SDS011;229;48.734;9.340;2023-08-06T11:05:04;1.55;;;0.85;;
485;SDS011;229;48.734;9.340;2023-08-06T11:07:33;0.73;;;0.57;;
485;SDS011;229;48.734;9.340;2023-08-06T11:10:01;0.90;;;0.60;;
485;SDS011;229;48.734;9.340;2023-08-06T11:12:29;1.85;;;0.90;;
485;SDS011;229;48.734;9.340;2023-08-06T11:14:56;1.35;;;0.60;;
485;SDS011;229;48.734;9.340;2023-08-06T11:17:23;1.33;;;0.60;;
485;SDS011;229;48.734;9.340;2023-08-06T11:19:51;1.67;;;0.60;;
485;SDS011;229;48.734;9.340;2023-08-06T11:22:18;2.00;;;0.70;;
485;SDS011;229;48.734;9.340;2023-08-06T11:24:47;1.08;;;0.82;;
485;SDS011;229;48.734;9.340;2023-08-06T11:27:16;0.97;;;0.70;;
485;SDS011;229;48.734;9.340;2023-08-06T11:29:44;3.10;;;1.05;;
485;SDS011;229;48.734;9.340;2023-08-06T11:32:11;1.10;;;0.70;;
485;SDS011;229;48.734;9.340;2023-08-06T11:34:41;1.40;;;0.77;;
485;SDS011;229;48.734;9.340;2023-08-06T11:37:10;1.05;;;0.80;;
485;SDS011;229;48.734;9.340;2023-08-06T11:39:37;1.48;;;0.70;;
485;SDS011;229;48.734;9.340;2023-08-06T11:42:06;1.17;;;0.70;;
485;SDS011;229;48.734;9.340;2023-08-06T11:44:34;0.90;;;0.70;;
485;SDS011;229;48.734;9.340;2023-08-06T11:47:02;1.00;;;0.82;;
485;SDS011;229;48.734;9.340;2023-08-06T11:49:38;2.55;;;0.80;;
485;SDS011;229;48.734;9.340;2023-08-06T11:52:07;0.90;;;0.80;;
485;SDS011;229;48.734;9.340;2023-08-06T11:54:36;2.00;;;1.10;;
485;SDS011;229;48.734;9.340;2023-08-06T11:57:03;1.02;;;0.85;;
485;SDS011;229;48.734;9.340;2023-08-06T11:59:33;2.10;;;1.05;;
485;SDS011;229;48.734;9.340;2023-08-06T12:02:01;2.15;;;0.98;;
485;SDS011;229;48.734;9.340;2023-08-06T12:04:30;1.43;;;0.90;;
485;SDS011;229;48.734;9.340;2023-08-06T12:07:04;1.13;;;0.90;;
485;SDS011;229;48.734;9.340;2023-08-06T12:09:32;1.27;;;0.93;;
485;SDS011;229;48.734;9.340;2023-08-06T12:12:01;1.20;;;1.00;;
485;SDS011;229;48.734;9.340;2023-08-06T12:14:28;2.70;;;1.10;;
485;SDS011;229;48.734;9.340;2023-08-06T12:16:57;1.50;;;1.13;;
485;SDS011;229;48.734;9.340;2023-08-06T12:19:25;2.37;;;1.10;;
485;SDS011;229;48.734;9.340;2023-08-06T12:21:52;1.85;;;1.15;;
485;SDS011;229;48.734;9.340;2023-08-06T12:24:19;1.90;;;1.20;;
485;SDS011;229;48.734;9.340;2023-08-06T12:26:46;3.67;;;1.30;;
485;SDS011;229;48.734;9.340;2023-08-06T12:29:13;3.03;;;1.00;;
485;SDS011;229;48.734;9.340;2023-08-06T12:31:41;2.80;;;1.23;;
485;SDS011;229;48.734;9.340;2023-08-06T12:34:09;2.75;;;1.20;;
485;SDS011;229;48.734;9.340;2023-08-06T12:36:36;4.72;;;1.30;;
485;SDS011;229;48.734;9.340;2023-08-06T12:39:03;1.40;;;1.20;;
485;SDS011;229;48.734;9.340;2023-08-06T12:41:30;2.70;;;1.20;;
485;SDS011;229;48.734;9.340;2023-08-06T12:43:58;1.83;;;1.27;;
485;SDS011;229;48.734;9.340;2023-08-06T12:46:25;3.13;;;1.48;;
485;SDS011;229;48.734;9.340;2023-08-06T12:48:52;2.20;;;1.38;;
485;SDS011;229;48.734;9.340;2023-08-06T12:51:21;2.40;;;1.33;;
485;SDS011;229;48.734;9.340;2023-08-06T12:53:48;2.42;;;1.60;;
485;SDS011;229;48.734;9.340;2023-08-06T12:56:15;2.40;;;1.50;;
485;SDS011;229;48.734;9.340;2023-08-06T12:58:44;1.30;;;1.15;;
485;SDS011;229;48.734;9.340;2023-08-06T13:01:11;1.80;;;1.50;;
485;SDS011;229;48.734;9.340;2023-08-06T13:03:38;3.50;;;1.00;;
485;SDS011;229;48.734;9.340;2023-08-06T13:06:05;1.55;;;1.00;;
485;SDS011;229;48.734;9.340;2023-08-06T13:08:36;1.23;;;1.00;;
485;SDS011;229;48.734;9.340;2023-08-06T13:11:03;0.90;;;0.90;;
485;SDS011;229;48.734;9.340;2023-08-06T13:13:31;2.20;;;0.90;;
485;SDS011;229;48.734;9.340;2023-08-06T13:15:58;1.20;;;0.97;;
485;SDS011;229;48.734;9.340;2023-08-06T13:18:25;3.92;;;1.58;;
485;SDS011;229;48.734;9.340;2023-08-06T13:20:54;2.92;;;1.10;;
485;SDS011;229;48.734;9.340;2023-08-06T13:23:21;1.50;;;1.40;;
485;SDS011;229;48.734;9.340;2023-08-06T13:25:50;1.87;;;1.13;;
485;SDS011;229;48.734;9.340;2023-08-06T13:28:17;1.27;;;1.00;;
485;SDS011;229;48.734;9.340;2023-08-06T13:30:45;2.00;;;1.20;;
485;SDS011;229;48.734;9.340;2023-08-06T13:33:12;2.13;;;1.30;;
485;SDS011;229;48.734;9.340;2023-08-06T13:35:39;1.77;;;1.30;;
485;SDS011;229;48.734;9.340;2023-08-06T13:38:06;4.03;;;1.60;;
485;SDS011;229;48.734;9.340;2023-08-06T13:40:33;1.65;;;1.23;;
485;SDS011;229;48.734;9.340;2023-08-06T13:43:02;3.27;;;1.53;;
485;SDS011;229;48.734;9.340;2023-08-06T13:45:29;1.30;;;1.00;;
485;SDS011;229;48.734;9.340;2023-08-06T13:47:59;1.53;;;1.20;;
485;SDS011;229;48.734;9.340;2023-08-06T13:50:26;2.10;;;1.50;;
485;SDS011;229;48.734;9.340;2023-08-06T13:52:54;1.77;;;0.90;;
485;SDS011;229;48.734;9.340;2023-08-06T13:55:21;1.63;;;1.07;;
485;SDS011;229;48.734;9.340;2023-08-06T13:57:48;2.03;;;1.20;;
485;SDS011;229;48.734;9.340;2023-08-06T14:00:17;3.20;;;0.90;;
485;SDS011;229;48.734;9.340;2023-08-06T14:02:45;3.37;;;1.20;;
485;SDS011;229;48.734;9.340;2023-08-06T14:05:12;2.40;;;1.10;;
485;SDS011;229;48.734;9.340;2023-08-06T14:07:40;2.53;;;1.00;;
485;SDS011;229;48.734;9.340;2023-08-06T14:10:07;2.60;;;1.40;;
485;SDS011;229;48.734;9.340;2023-08-06T14:12:35;1.50;;;1.20;;
485;SDS011;229;48.734;9.340;2023-08-06T14:15:02;4.37;;;1.47;;
485;SDS011;229;48.734;9.340;2023-08-06T14:17:31;1.53;;;1.10;;
485;SDS011;229;48.734;9.340;2023-08-06T14:19:58;4.53;;;1.60;;
485;SDS011;229;48.734;9.340;2023-08-06T14:22:25;2.53;;;1.50;;
485;SDS011;229;48.734;9.340;2023-08-06T14:24:53;1.63;;;1.10;;
485;SDS011;229;48.734;9.340;2023-08-06T14:27:21;2.00;;;1.00;;
485;SDS011;229;48.734;9.340;2023-08-06T14:29:48;2.33;;;1.20;;
485;SDS011;229;48.734;9.340;2023-08-06T14:32:15;2.33;;;1.23;;
485;SDS011;229;48.734;9.340;2023-08-06T14:34:45;1.50;;;1.00;;
485;SDS011;229;48.734;9.340;2023-08-06T14:37:13;1.50;;;1.27;;
485;SDS011;229;48.734;9.340;2023-08-06T14:39:40;2.90;;;1.40;;
485;SDS011;229;48.734;9.340;2023-08-06T14:42:07;1.27;;;1.00;;
485;SDS011;229;48.734;9.340;2023-08-06T14:44:34;2.10;;;1.67;;
485;SDS011;229;48.734;9.340;2023-08-06T14:47:01;3.50;;;1.00;;
485;SDS011;229;48.734;9.340;2023-08-06T14:49:29;2.20;;;1.17;;
485;SDS011;229;48.734;9.340;2023-08-06T14:51:57;1.83;;;1.03;;
485;SDS011;229;48.734;9.340;2023-08-06T14:54:26;1.13;;;1.07;;
485;SDS011;229;48.734;9.340;2023-08-06T14:56:54;1.77;;;1.00;;
485;SDS011;229;48.734;9.340;2023-08-06T14:59:21;2.70;;;1.10;;
485;SDS011;229;48.734;9.340;2023-08-06T15:01:48;1.30;;;1.10;;
485;SDS011;229;48.734;9.340;2023-08-06T15:04:16;1.53;;;1.13;;
485;SDS011;229;48.734;9.340;2023-08-06T15:06:44;1.10;;;1.00;;
485;SDS011;229;48.734;9.340;2023-08-06T15:09:12;2.60;;;1.40;;
485;SDS011;229;48.734;9.340;2023-08-06T15:11:39;1.40;;;1.00;;
485;SDS011;229;48.734;9.340;2023-08-06T15:14:07;1.60;;;1.10;;
485;SDS011;229;48.734;9.340;2023-08-06T15:16:34;1.43;;;1.17;;
485;SDS011;229;48.734;9.340;2023-08-06T15:19:01;1.90;;;0.90;;
485;SDS011;229;48.734;9.340;2023-08-06T15:21:28;2.67;;;1.10;;
485;SDS011;229;48.734;9.340;2023-08-06T15:23:55;2.73;;;1.93;;
485;SDS011;229;48.734;9.340;2023-08-06T15:26:24;2.03;;;1.17;;
485;SDS011;229;48.734;9.340;2023-08-06T15:28:51;1.97;;;1.10;;
485;SDS011;229;48.734;9.340;2023-08-06T15:31:19;1.33;;;1.10;;
485;SDS011;229;48.734;9.340;2023-08-06T15:33:47;1.30;;;1.00;;
485;SDS011;229;48.734;9.340;2023-08-06T15:36:14;2.43;;;1.30;;
485;SDS011;229;48.734;9.340;2023-08-06T15:38:41;2.53;;;1.23;;
485;SDS011;229;48.734;9.340;2023-08-06T15:41:08;3.13;;;1.10;;
485;SDS011;229;48.734;9.340;2023-08-06T15:43:37;1.57;;;1.10;;
485;SDS011;229;48.734;9.340;2023-08-06T15:46:06;2.87;;;1.17;;
485;SDS011;229;48.734;9.340;2023-08-06T15:48:33;5.87;;;2.40;;